createdAt,value
2022-07-27T00:02:03.589Z,14.88
2022-07-27T00:04:50.543Z,14.88
2022-07-27T00:07:38.708Z,14.85
2022-07-27T00:10:25.127Z,14.85
2022-07-27T00:13:11.932Z,14.99
2022-07-27T00:15:59.050Z,15.13
2022-07-27T00:18:45.523Z,15.23
2022-07-27T00:21:32.324Z,15.39
2022-07-27T00:24:20.488Z,15.31
2022-07-27T00:27:08.320Z,15.23
2022-07-27T00:29:58.873Z,15.35
2022-07-27T00:32:46.728Z,15.20
2022-07-27T00:35:33.431Z,15.13
2022-07-27T00:38:22.474Z,15.06
2022-07-27T00:41:11.340Z,14.99
2022-07-27T00:43:59.157Z,14.93
2022-07-27T00:46:45.632Z,14.81
2022-07-27T00:49:32.391Z,14.60
2022-07-27T00:52:19.642Z,14.53
2022-07-27T00:55:08.567Z,14.35
2022-07-27T00:57:59.548Z,14.16
2022-07-27T01:00:46.929Z,14.01
2022-07-27T01:03:33.445Z,13.90
2022-07-27T01:06:27.012Z,13.70
2022-07-27T01:09:31.512Z,13.54
2022-07-27T01:12:21.718Z,13.40
2022-07-27T01:15:10.897Z,13.30
2022-07-27T01:17:57.755Z,13.16
2022-07-27T01:20:44.613Z,13.06
2022-07-27T01:23:33.647Z,12.96
2022-07-27T01:26:20.005Z,12.92
2022-07-27T01:29:08.953Z,12.86
2022-07-27T01:31:57.649Z,12.76
2022-07-27T01:34:45.045Z,12.77
2022-07-27T01:37:33.905Z,12.61
2022-07-27T01:40:22.949Z,12.51
2022-07-27T01:43:10.057Z,12.40
2022-07-27T01:45:57.101Z,12.38
2022-07-27T01:48:43.828Z,12.26
2022-07-27T01:51:30.452Z,12.19
2022-07-27T01:54:17.256Z,12.13
2022-07-27T01:57:05.676Z,12.12
2022-07-27T01:59:53.888Z,12.08
2022-07-27T02:02:41.348Z,12.04
2022-07-27T02:05:28.413Z,11.96
2022-07-27T02:08:15.224Z,11.93
2022-07-27T02:11:19.828Z,11.85
2022-07-27T02:14:07.792Z,11.79
2022-07-27T02:16:54.672Z,11.68
2022-07-27T02:19:42.164Z,11.61
2022-07-27T02:22:29.332Z,11.63
2022-07-27T02:25:19.015Z,11.55
2022-07-27T02:28:06.171Z,11.56
2022-07-27T02:30:55.748Z,11.55
2022-07-27T02:33:42.548Z,11.52
2022-07-27T02:36:30.045Z,11.44
2022-07-27T02:39:16.910Z,11.54
2022-07-27T02:42:05.440Z,11.50
2022-07-27T02:44:52.885Z,11.53
2022-07-27T02:47:41.806Z,11.43
2022-07-27T02:50:29.924Z,11.29
2022-07-27T02:53:17.240Z,11.18
2022-07-27T02:56:04.180Z,11.22
2022-07-27T02:58:51.131Z,11.18
2022-07-27T03:01:39.613Z,11.13
2022-07-27T03:04:28.063Z,11.22
2022-07-27T03:07:14.947Z,11.33
2022-07-27T03:10:01.993Z,11.31
2022-07-27T03:12:48.505Z,11.19
2022-07-27T03:15:35.643Z,11.26
2022-07-27T03:18:22.058Z,11.25
2022-07-27T03:21:10.156Z,11.22
2022-07-27T03:23:57.895Z,11.22
2022-07-27T03:26:44.624Z,11.27
2022-07-27T03:29:31.503Z,11.23
2022-07-27T03:32:18.354Z,11.21
2022-07-27T03:35:05.518Z,11.49
2022-07-27T03:37:53.847Z,11.37
2022-07-27T03:40:41.711Z,11.35
2022-07-27T03:43:28.254Z,11.33
2022-07-27T03:46:15.073Z,11.53
2022-07-27T03:49:02.124Z,11.50
2022-07-27T03:52:01.312Z,11.47
2022-07-27T03:54:49.637Z,11.49
2022-07-27T03:57:36.113Z,11.65
2022-07-27T04:00:23.400Z,11.61
2022-07-27T04:03:09.945Z,11.65
2022-07-27T04:05:56.762Z,11.69
2022-07-27T04:08:43.442Z,11.73
2022-07-27T04:11:31.519Z,11.79
2022-07-27T04:14:18.382Z,11.90
2022-07-27T04:17:05.111Z,11.99
2022-07-27T04:19:51.880Z,12.10
2022-07-27T04:22:38.434Z,12.12
2022-07-27T04:25:25.213Z,12.31
2022-07-27T04:28:13.198Z,12.41
2022-07-27T04:31:00.153Z,12.50
2022-07-27T04:33:47.047Z,12.58
2022-07-27T04:36:33.635Z,12.68
2022-07-27T04:39:20.659Z,12.80
2022-07-27T04:42:07.771Z,12.93
2022-07-27T04:44:55.591Z,13.00
2022-07-27T04:47:42.360Z,13.09
2022-07-27T04:50:29.235Z,13.09
2022-07-27T04:53:18.094Z,13.19
2022-07-27T04:56:04.961Z,13.20
2022-07-27T04:58:52.857Z,13.22
2022-07-27T05:01:43.714Z,13.33
2022-07-27T05:04:32.580Z,13.49
2022-07-27T05:07:19.775Z,13.75
2022-07-27T05:10:08.494Z,13.93
2022-07-27T05:12:56.918Z,14.60
2022-07-27T05:15:54.117Z,15.29
2022-07-27T05:18:43.642Z,15.80
2022-07-27T05:21:30.331Z,16.00
2022-07-27T05:24:17.016Z,16.12
2022-07-27T05:27:06.391Z,16.14
2022-07-27T05:29:53.030Z,15.79
2022-07-27T05:32:43.946Z,15.50
2022-07-27T05:35:32.273Z,15.57
2022-07-27T05:38:18.993Z,15.79
2022-07-27T05:41:11.426Z,16.00
2022-07-27T05:43:57.819Z,16.25
2022-07-27T05:46:44.745Z,16.46
2022-07-27T05:49:32.147Z,16.21
2022-07-27T05:52:20.997Z,16.05
2022-07-27T05:55:08.596Z,15.72
2022-07-27T05:57:55.669Z,15.53
2022-07-27T06:00:43.869Z,15.28
2022-07-27T06:03:31.214Z,15.13
2022-07-27T06:06:44.394Z,15.11
2022-07-27T06:09:35.756Z,15.24
2022-07-27T06:12:23.055Z,15.36
2022-07-27T06:15:19.767Z,15.59
2022-07-27T06:18:09.133Z,16.11
2022-07-27T06:20:55.973Z,16.46
2022-07-27T06:23:42.912Z,16.76
2022-07-27T06:26:31.017Z,16.82
2022-07-27T06:29:17.647Z,16.84
2022-07-27T06:32:04.670Z,16.83
2022-07-27T06:34:51.861Z,16.88
2022-07-27T06:37:44.120Z,16.91
2022-07-27T06:40:32.301Z,16.85
2022-07-27T06:43:21.196Z,16.87
2022-07-27T06:46:12.615Z,16.87
2022-07-27T06:49:00.227Z,17.08
2022-07-27T06:51:46.903Z,17.27
2022-07-27T06:54:33.643Z,17.37
2022-07-27T06:57:20.408Z,17.38
2022-07-27T07:00:10.334Z,17.41
2022-07-27T07:02:59.291Z,17.46
2022-07-27T07:05:47.408Z,17.62
2022-07-27T07:08:34.233Z,17.69
2022-07-27T07:11:21.169Z,17.73
2022-07-27T07:14:07.747Z,17.87
2022-07-27T07:16:56.074Z,17.66
2022-07-27T07:19:42.484Z,17.66
2022-07-27T07:22:29.593Z,17.72
2022-07-27T07:25:16.236Z,17.79
2022-07-27T07:28:03.295Z,17.76
2022-07-27T07:30:50.025Z,17.81
2022-07-27T07:33:37.716Z,17.75
2022-07-27T07:36:24.641Z,17.75
2022-07-27T07:39:12.486Z,17.63
2022-07-27T07:41:59.449Z,17.50
2022-07-27T07:44:46.230Z,17.30
2022-07-27T07:47:32.905Z,17.31
2022-07-27T07:50:22.204Z,17.20
2022-07-27T07:53:09.086Z,17.19
2022-07-27T07:55:56.900Z,17.19
2022-07-27T07:58:43.355Z,17.26
2022-07-27T08:01:30.124Z,17.20
2022-07-27T08:04:16.741Z,17.32
2022-07-27T08:07:06.349Z,17.33
2022-07-27T08:09:52.721Z,17.29
2022-07-27T08:12:42.401Z,17.24
2022-07-27T08:15:35.880Z,17.36
2022-07-27T08:18:22.935Z,17.35
2022-07-27T08:21:09.568Z,17.38
2022-07-27T08:23:58.810Z,17.54
2022-07-27T08:26:49.598Z,17.54
2022-07-27T08:29:36.744Z,17.68
2022-07-27T08:32:25.155Z,18.03
2022-07-27T08:35:18.751Z,18.26
2022-07-27T08:38:09.464Z,18.62
2022-07-27T08:40:58.020Z,18.76
2022-07-27T08:43:45.119Z,18.79
2022-07-27T08:46:33.182Z,18.96
2022-07-27T08:49:20.373Z,18.78
2022-07-27T08:52:08.000Z,18.42
2022-07-27T08:54:54.510Z,18.27
2022-07-27T08:57:42.646Z,18.12
2022-07-27T09:00:30.010Z,17.83
2022-07-27T09:03:20.086Z,17.83
2022-07-27T09:06:07.601Z,18.09
2022-07-27T09:09:00.211Z,18.46
2022-07-27T09:12:04.965Z,18.85
2022-07-27T09:14:53.394Z,19.16
2022-07-27T09:17:48.598Z,19.30
2022-07-27T09:20:39.455Z,19.23
2022-07-27T09:23:28.332Z,18.97
2022-07-27T09:26:31.237Z,18.83
2022-07-27T09:29:19.670Z,18.68
2022-07-27T09:32:16.668Z,18.71
2022-07-27T09:35:17.026Z,18.96
2022-07-27T09:38:25.607Z,18.94
2022-07-27T09:41:14.407Z,18.89
2022-07-27T09:47:26.741Z,18.78
2022-07-27T09:50:20.548Z,18.91
2022-07-27T09:53:41.461Z,19.06
2022-07-27T09:56:30.338Z,19.24
2022-07-27T09:59:19.707Z,19.32
2022-07-27T10:02:06.738Z,19.31
2022-07-27T10:04:55.243Z,19.24
2022-07-27T10:07:41.973Z,19.25
2022-07-27T10:10:28.757Z,19.09
2022-07-27T10:13:15.505Z,19.15
2022-07-27T10:16:04.878Z,19.37
2022-07-27T10:18:59.900Z,19.73
2022-07-27T10:21:50.039Z,19.89
2022-07-27T10:24:37.306Z,19.72
2022-07-27T10:27:29.053Z,19.53
2022-07-27T10:30:27.643Z,19.49
2022-07-27T10:33:16.757Z,19.46
2022-07-27T10:36:04.907Z,19.40
2022-07-27T10:38:56.522Z,19.22
2022-07-27T10:41:44.054Z,19.09
2022-07-27T10:44:31.578Z,19.01
2022-07-27T10:47:31.017Z,18.93
2022-07-27T10:50:31.263Z,18.94
2022-07-27T10:53:18.697Z,18.91
2022-07-27T10:56:08.151Z,19.10
2022-07-27T10:58:54.973Z,19.42
2022-07-27T11:01:57.746Z,19.58
2022-07-27T11:04:46.079Z,19.70
2022-07-27T11:07:44.036Z,19.65
2022-07-27T11:10:44.768Z,19.67
2022-07-27T11:13:38.655Z,19.66
2022-07-27T11:16:27.903Z,19.70
2022-07-27T11:19:17.195Z,19.78
2022-07-27T11:22:04.810Z,19.94
2022-07-27T11:24:51.896Z,20.19
2022-07-27T11:27:47.560Z,20.34
2022-07-27T11:30:35.655Z,20.15
2022-07-27T11:33:23.035Z,19.91
2022-07-27T11:36:19.674Z,19.65
2022-07-27T11:39:14.559Z,19.48
2022-07-27T11:42:11.515Z,19.54
2022-07-27T11:44:58.548Z,19.55
2022-07-27T11:47:57.540Z,19.68
2022-07-27T11:50:58.440Z,19.81
2022-07-27T11:53:45.220Z,20.03
2022-07-27T11:56:34.098Z,20.32
2022-07-27T11:59:21.756Z,20.68
2022-07-27T12:02:10.076Z,20.80
2022-07-27T12:05:02.916Z,20.81
2022-07-27T12:07:52.779Z,20.70
2022-07-27T12:10:39.594Z,20.68
2022-07-27T12:13:33.533Z,20.72
2022-07-27T12:16:40.692Z,20.72
2022-07-27T12:19:28.935Z,20.86
2022-07-27T12:22:24.527Z,20.97
2022-07-27T12:25:25.448Z,20.97
2022-07-27T12:28:14.397Z,20.94
2022-07-27T12:31:01.366Z,20.87
2022-07-27T12:33:48.313Z,20.98
2022-07-27T12:36:35.094Z,21.08
2022-07-27T12:39:30.451Z,21.19
2022-07-27T12:42:17.094Z,21.36
2022-07-27T12:45:18.914Z,21.56
2022-07-27T12:48:09.893Z,21.36
2022-07-27T12:51:01.968Z,21.37
2022-07-27T12:53:48.555Z,21.35
2022-07-27T12:56:36.690Z,21.33
2022-07-27T12:59:23.845Z,21.12
2022-07-27T13:02:10.263Z,21.03
2022-07-27T13:04:57.080Z,21.09
2022-07-27T13:07:46.141Z,21.13
2022-07-27T13:10:33.375Z,21.19
2022-07-27T13:13:24.652Z,21.17
2022-07-27T13:16:11.756Z,21.11
2022-07-27T13:18:58.348Z,21.06
2022-07-27T13:21:45.087Z,21.12
2022-07-27T13:24:32.188Z,21.07
2022-07-27T13:27:18.537Z,20.99
2022-07-27T13:30:09.570Z,21.07
2022-07-27T13:32:56.974Z,21.08
2022-07-27T13:35:43.796Z,21.03
2022-07-27T13:38:33.596Z,21.04
2022-07-27T13:41:20.168Z,20.97
2022-07-27T13:44:08.652Z,20.84
2022-07-27T13:46:58.311Z,20.83
2022-07-27T13:49:45.528Z,20.72
2022-07-27T13:52:32.211Z,20.76
2022-07-27T13:55:20.703Z,20.79
2022-07-27T13:58:11.936Z,20.71
2022-07-27T14:01:02.776Z,20.73
2022-07-27T14:03:55.111Z,20.83
2022-07-27T14:06:42.152Z,20.83
2022-07-27T14:09:42.838Z,20.82
2022-07-27T14:12:29.420Z,20.74
2022-07-27T14:15:16.637Z,20.78
2022-07-27T14:18:03.267Z,20.85
2022-07-27T14:20:51.418Z,20.72
2022-07-27T14:23:38.481Z,20.76
2022-07-27T14:26:24.929Z,20.76
2022-07-27T14:29:11.625Z,20.73
2022-07-27T14:31:58.607Z,20.67
2022-07-27T14:34:45.152Z,20.67
2022-07-27T14:37:34.350Z,20.71
2022-07-27T14:40:21.428Z,20.68
2022-07-27T14:43:15.030Z,20.75
2022-07-27T14:46:03.049Z,20.85
2022-07-27T14:49:05.617Z,21.01
2022-07-27T14:51:52.924Z,21.23
2022-07-27T14:54:41.129Z,21.21
2022-07-27T14:57:29.785Z,21.17
2022-07-27T15:00:19.313Z,21.03
2022-07-27T15:03:07.325Z,20.99
2022-07-27T15:05:53.986Z,20.88
2022-07-27T15:08:40.713Z,20.81
2022-07-27T15:11:28.804Z,20.79
2022-07-27T15:14:18.588Z,20.66
2022-07-27T15:17:05.911Z,20.70
2022-07-27T15:19:54.189Z,20.84
2022-07-27T15:22:41.423Z,21.01
2022-07-27T15:25:28.287Z,20.97
2022-07-27T15:28:16.824Z,20.94
2022-07-27T15:31:03.499Z,20.84
2022-07-27T15:33:50.189Z,20.93
2022-07-27T15:36:43.703Z,21.02
2022-07-27T15:39:31.339Z,20.79
2022-07-27T15:42:18.193Z,20.74
2022-07-27T15:45:07.351Z,20.97
2022-07-27T15:47:53.827Z,21.25
2022-07-27T15:50:42.917Z,21.21
2022-07-27T15:53:30.084Z,21.20
2022-07-27T15:56:16.784Z,21.03
2022-07-27T15:59:03.277Z,21.04
2022-07-27T16:01:51.406Z,20.92
2022-07-27T16:04:40.094Z,20.94
2022-07-27T16:07:40.714Z,21.08
2022-07-27T16:10:30.682Z,21.15
2022-07-27T16:13:18.798Z,21.03
2022-07-27T16:16:26.124Z,21.09
2022-07-27T16:19:14.508Z,20.99
2022-07-27T16:22:03.821Z,20.95
2022-07-27T16:24:51.164Z,20.57
2022-07-27T16:27:40.689Z,20.44
2022-07-27T16:30:33.996Z,20.23
2022-07-27T16:33:24.767Z,20.05
2022-07-27T16:36:13.112Z,20.02
2022-07-27T16:38:59.988Z,19.98
2022-07-27T16:41:47.364Z,19.98
2022-07-27T16:44:35.574Z,19.88
2022-07-27T16:47:22.501Z,20.06
2022-07-27T16:50:09.802Z,19.99
2022-07-27T16:52:57.819Z,19.78
2022-07-27T16:55:47.202Z,19.70
2022-07-27T16:58:36.601Z,19.55
2022-07-27T17:01:26.155Z,19.55
2022-07-27T17:04:14.217Z,19.60
2022-07-27T17:07:00.583Z,19.38
2022-07-27T17:09:49.104Z,19.30
2022-07-27T17:12:38.844Z,19.39
2022-07-27T17:15:28.717Z,19.30
2022-07-27T17:18:16.219Z,19.35
2022-07-27T17:21:06.128Z,19.30
2022-07-27T17:23:59.063Z,19.27
2022-07-27T17:26:47.595Z,19.13
2022-07-27T17:29:34.462Z,18.91
2022-07-27T17:32:21.199Z,18.90
2022-07-27T17:35:08.724Z,18.87
2022-07-27T17:38:05.996Z,18.72
2022-07-27T17:40:53.177Z,18.59
2022-07-27T17:43:41.795Z,18.38
2022-07-27T17:46:28.786Z,18.18
2022-07-27T17:49:15.943Z,18.05
2022-07-27T17:52:03.315Z,17.95
2022-07-27T17:54:50.108Z,17.67
2022-07-27T17:57:36.872Z,17.70
2022-07-27T18:00:24.929Z,17.62
2022-07-27T18:03:13.069Z,17.50
2022-07-27T18:06:00.390Z,17.53
2022-07-27T18:08:46.866Z,17.46
2022-07-27T18:11:33.706Z,17.24
2022-07-27T18:14:21.654Z,17.11
2022-07-27T18:17:09.625Z,16.99
2022-07-27T18:19:56.369Z,16.87
2022-07-27T18:22:43.763Z,16.78
2022-07-27T18:25:30.722Z,16.66
2022-07-27T18:28:17.811Z,16.58
2022-07-27T18:31:05.252Z,16.47
2022-07-27T18:33:54.555Z,16.36
2022-07-27T18:36:42.584Z,16.25
2022-07-27T18:39:32.408Z,16.17
2022-07-27T18:42:20.537Z,16.05
2022-07-27T18:45:08.443Z,15.94
2022-07-27T18:47:55.403Z,15.90
2022-07-27T18:50:43.467Z,15.78
2022-07-27T18:53:30.294Z,15.76
2022-07-27T18:56:17.291Z,15.64
2022-07-27T18:59:04.114Z,15.53
2022-07-27T19:01:52.415Z,15.49
2022-07-27T19:04:41.716Z,15.39
2022-07-27T19:07:31.027Z,15.32
2022-07-27T19:10:20.921Z,15.21
2022-07-27T19:13:08.597Z,15.18
2022-07-27T19:15:55.027Z,15.17
2022-07-27T19:18:42.115Z,15.14
2022-07-27T19:21:28.606Z,15.14
2022-07-27T19:24:16.664Z,14.95
2022-07-27T19:27:03.590Z,14.87
2022-07-27T19:29:51.507Z,14.73
2022-07-27T19:32:38.161Z,14.68
2022-07-27T19:35:24.917Z,14.59
2022-07-27T19:38:13.222Z,14.51
2022-07-27T19:41:02.250Z,14.44
2022-07-27T19:43:49.003Z,14.39
2022-07-27T19:46:36.292Z,14.33
2022-07-27T19:49:24.235Z,14.30
2022-07-27T19:52:15.527Z,14.24
2022-07-27T19:55:02.015Z,14.17
2022-07-27T19:57:52.544Z,14.03
2022-07-27T20:00:39.673Z,14.06
2022-07-27T20:03:26.756Z,14.00
2022-07-27T20:06:14.815Z,13.98
2022-07-27T20:09:01.652Z,13.94
2022-07-27T20:11:49.785Z,13.82
2022-07-27T20:14:38.798Z,13.77
2022-07-27T20:17:25.565Z,13.72
2022-07-27T20:20:13.518Z,13.83
2022-07-27T20:23:00.431Z,13.81
2022-07-27T20:25:47.107Z,13.71
2022-07-27T20:28:33.787Z,13.67
2022-07-27T20:31:23.293Z,13.62
2022-07-27T20:34:12.436Z,13.51
2022-07-27T20:37:01.936Z,13.58
2022-07-27T20:39:49.511Z,13.54
2022-07-27T20:42:36.025Z,13.47
2022-07-27T20:45:26.914Z,13.41
2022-07-27T20:48:15.116Z,13.43
2022-07-27T20:51:01.885Z,13.29
2022-07-27T20:53:48.996Z,13.18
2022-07-27T20:56:36.053Z,13.17
2022-07-27T20:59:23.149Z,13.23
2022-07-27T21:02:10.083Z,13.13
2022-07-27T21:04:58.741Z,13.12
2022-07-27T21:07:46.592Z,13.07
2022-07-27T21:10:34.020Z,13.01
2022-07-27T21:13:20.453Z,12.92
2022-07-27T21:16:08.707Z,12.87
2022-07-27T21:18:57.165Z,12.79
2022-07-27T21:21:45.775Z,12.70
2022-07-27T21:24:32.264Z,12.66
2022-07-27T21:27:21.323Z,12.59
2022-07-27T21:30:08.929Z,12.54
2022-07-27T21:32:55.703Z,12.46
2022-07-27T21:35:42.663Z,12.41
2022-07-27T21:38:31.108Z,12.39
2022-07-27T21:41:17.907Z,12.30
2022-07-27T21:44:05.591Z,12.26
2022-07-27T21:46:52.964Z,12.18
2022-07-27T21:49:39.793Z,12.14
2022-07-27T21:52:26.898Z,12.06
2022-07-27T21:55:22.768Z,11.99
2022-07-27T21:58:12.272Z,11.94
2022-07-27T22:00:59.015Z,11.89
2022-07-27T22:03:46.107Z,11.85
2022-07-27T22:06:32.595Z,11.82
2022-07-27T22:09:20.213Z,11.77
2022-07-27T22:12:08.801Z,11.69
2022-07-27T22:14:55.511Z,11.65
2022-07-27T22:17:46.016Z,11.59
2022-07-27T22:20:37.094Z,11.52
2022-07-27T22:23:23.852Z,11.45
2022-07-27T22:26:10.824Z,11.38
2022-07-27T22:28:59.101Z,11.36
2022-07-27T22:31:45.848Z,11.33
2022-07-27T22:34:34.356Z,11.28
2022-07-27T22:37:21.673Z,11.26
2022-07-27T22:40:10.547Z,11.26
2022-07-27T22:42:57.484Z,11.22
2022-07-27T22:45:45.888Z,11.20
2022-07-27T22:48:32.781Z,11.16
2022-07-27T22:51:19.587Z,11.19
2022-07-27T22:54:06.389Z,11.03
2022-07-27T22:56:53.506Z,10.89
2022-07-27T22:59:40.250Z,10.80
2022-07-27T23:02:29.239Z,10.74
2022-07-27T23:05:16.334Z,10.64
2022-07-27T23:08:03.050Z,10.59
2022-07-27T23:10:49.808Z,10.58
2022-07-27T23:13:36.996Z,10.48
2022-07-27T23:16:23.959Z,10.58
2022-07-27T23:19:12.343Z,10.64
2022-07-27T23:22:01.504Z,10.64
2022-07-27T23:24:48.711Z,10.62
2022-07-27T23:27:35.861Z,10.51
2022-07-27T23:30:22.812Z,10.37
2022-07-27T23:33:09.546Z,10.29
2022-07-27T23:35:57.740Z,10.19
2022-07-27T23:38:44.415Z,10.05
2022-07-27T23:41:31.129Z,9.99
2022-07-27T23:44:17.841Z,10.09
2022-07-27T23:47:05.693Z,10.09
2022-07-27T23:49:52.227Z,10.17
2022-07-27T23:52:40.540Z,10.11
2022-07-27T23:55:27.407Z,10.02
2022-07-27T23:58:14.294Z,9.97
